Terminal Aerodrome Forecast
Issued by NWS Twin Cities, MN

Home | Current Version | Previous Version | Text Only | Print | Product List | Glossary Off
Versions: 1 2 3 4 5 6 7 8 9 10 11 12 13 14 15 16 17 18 19 20 21 22 23 24 25 26

105
FTUS43 KMPX 232153 AAB
TAFMSP
TAF AMD
KMSP 232153Z 2322/2424 34011G17KT 2SM TSRA BKN006 BKN025 OVC035CB
     FM232230 15012KT P6SM FEW008 SCT025 BKN035
     FM240200 17011KT P6SM VCTS BKN050CB
     FM240700 23008KT P6SM SCT060 BKN100
     FM240800 28005KT P6SM SCT250=

USA.gov is the U.S. government's official web portal to all federal, state and local government web resources and services.